createdAt,value
2022-08-11T00:01:55.712Z,11.35
2022-08-11T00:05:02.172Z,12.40
2022-08-11T00:08:04.843Z,11.48
2022-08-11T00:11:12.755Z,11.02
2022-08-11T00:14:17.045Z,11.45
2022-08-11T00:17:19.457Z,10.98
2022-08-11T00:20:22.197Z,11.05
2022-08-11T00:23:25.297Z,10.38
2022-08-11T00:26:29.175Z,13.05
2022-08-11T00:29:32.269Z,12.43
2022-08-11T00:32:35.790Z,11.90
2022-08-11T00:39:05.628Z,11.32
2022-08-11T00:42:34.858Z,11.43
2022-08-11T00:45:52.416Z,12.02
2022-08-11T00:49:18.633Z,11.80
2022-08-11T00:52:50.800Z,13.88
2022-08-11T00:56:21.115Z,12.85
2022-08-11T01:00:03.834Z,11.65
2022-08-11T01:03:30.133Z,13.77
2022-08-11T01:07:00.030Z,11.73
2022-08-11T01:10:10.011Z,11.43
2022-08-11T01:13:33.499Z,13.23
2022-08-11T01:17:29.518Z,11.75
2022-08-11T01:20:46.493Z,13.02
2022-08-11T01:24:18.516Z,13.52
2022-08-11T01:27:29.035Z,12.90
2022-08-11T01:30:55.660Z,12.80
2022-08-11T01:34:31.970Z,12.93
2022-08-11T01:37:54.947Z,12.82
2022-08-11T01:41:20.849Z,12.57
2022-08-11T01:44:57.649Z,11.73
2022-08-11T01:48:16.356Z,14.35
2022-08-11T01:51:45.114Z,13.52
2022-08-11T01:54:56.848Z,13.23
2022-08-11T01:58:44.043Z,14.38
2022-08-11T02:02:42.446Z,15.75
2022-08-11T02:06:28.809Z,14.73
2022-08-11T02:09:49.275Z,14.50
2022-08-11T02:13:07.652Z,13.05
2022-08-11T02:16:26.158Z,9.60
2022-08-11T02:20:08.737Z,14.98
2022-08-11T02:24:04.595Z,13.75
2022-08-11T02:27:24.894Z,14.90
2022-08-11T02:30:32.595Z,14.60
2022-08-11T02:33:36.950Z,13.65
2022-08-11T02:36:50.287Z,14.73
2022-08-11T02:39:58.132Z,15.30
2022-08-11T02:43:17.232Z,18.55
2022-08-11T02:46:32.870Z,15.10
2022-08-11T02:50:17.731Z,14.68
2022-08-11T02:53:30.947Z,14.05
2022-08-11T02:56:38.702Z,15.85
2022-08-11T03:00:11.815Z,13.48
2022-08-11T03:03:25.732Z,14.63
2022-08-11T03:06:52.460Z,17.13
2022-08-11T03:10:03.027Z,15.95
2022-08-11T03:13:41.763Z,17.00
2022-08-11T03:17:27.748Z,16.27
2022-08-11T03:20:57.772Z,16.17
2022-08-11T03:24:03.543Z,17.00
2022-08-11T03:27:14.627Z,14.60
2022-08-11T03:30:27.677Z,17.40
2022-08-11T03:34:08.006Z,13.38
2022-08-11T03:37:40.320Z,14.13
2022-08-11T03:42:02.303Z,16.00
2022-08-11T03:45:03.644Z,16.90
2022-08-11T03:48:23.113Z,14.73
2022-08-11T03:51:52.209Z,18.20
2022-08-11T03:55:12.057Z,16.58
2022-08-11T03:59:07.022Z,16.05
2022-08-11T04:02:39.446Z,19.23
2022-08-11T04:05:44.040Z,17.83
2022-08-11T04:09:17.923Z,20.10
2022-08-11T04:16:26.159Z,15.73
2022-08-11T04:19:52.639Z,17.85
2022-08-11T04:23:13.359Z,17.48
2022-08-11T04:27:14.142Z,16.35
2022-08-11T04:30:27.698Z,18.95
2022-08-11T04:34:18.007Z,16.13
2022-08-11T04:37:51.385Z,17.25
2022-08-11T04:41:20.777Z,15.82
2022-08-11T04:45:01.944Z,16.02
2022-08-11T04:48:43.158Z,13.35
2022-08-11T04:52:24.850Z,13.13
2022-08-11T04:56:27.270Z,14.57
2022-08-11T05:00:21.026Z,14.05
2022-08-11T05:03:35.399Z,13.40
2022-08-11T05:18:20.893Z,11.15
2022-08-11T05:21:44.796Z,14.80
2022-08-11T05:25:09.493Z,15.15
2022-08-11T05:28:33.365Z,12.75
2022-08-11T05:32:02.125Z,14.25
2022-08-11T05:35:07.610Z,14.13
2022-08-11T05:38:43.342Z,13.05
2022-08-11T05:42:03.934Z,14.52
2022-08-11T05:46:02.355Z,15.90
2022-08-11T05:49:16.021Z,13.75
2022-08-11T05:52:42.027Z,14.20
2022-08-11T05:56:03.931Z,12.55
2022-08-11T05:59:13.692Z,15.60
2022-08-11T06:02:16.629Z,13.52
2022-08-11T06:05:19.665Z,13.18
2022-08-11T06:11:43.578Z,15.60
2022-08-11T06:14:49.494Z,11.05
2022-08-11T06:17:52.054Z,13.05
2022-08-11T06:20:56.555Z,12.90
2022-08-11T06:23:59.737Z,13.30
2022-08-11T06:30:15.465Z,14.10
2022-08-11T06:33:44.052Z,16.25
2022-08-11T06:37:01.652Z,13.52
2022-08-11T06:40:33.900Z,12.32
2022-08-11T06:43:55.394Z,13.80
2022-08-11T06:47:09.833Z,12.55
2022-08-11T06:50:34.057Z,12.38
2022-08-11T06:53:39.277Z,10.57
2022-08-11T06:57:28.977Z,14.30
2022-08-11T07:00:28.660Z,11.50
2022-08-11T07:03:35.927Z,10.48
2022-08-11T07:07:34.104Z,10.07
2022-08-11T07:11:14.470Z,10.68
2022-08-11T07:14:39.551Z,9.48
2022-08-11T07:17:49.519Z,17.60
2022-08-11T07:22:00.872Z,11.35
2022-08-11T07:25:08.370Z,15.38
2022-08-11T07:28:40.389Z,12.82
2022-08-11T07:31:51.908Z,16.85
2022-08-11T07:35:23.480Z,12.35
2022-08-11T07:38:43.260Z,14.40
2022-08-11T07:41:48.587Z,10.98
2022-08-11T07:45:11.082Z,10.95
2022-08-11T07:48:33.681Z,12.88
2022-08-11T07:51:55.809Z,12.18
2022-08-11T07:55:07.786Z,22.13
2022-08-11T07:58:29.989Z,12.88
2022-08-11T08:01:54.746Z,13.63
2022-08-11T08:05:17.437Z,12.07
2022-08-11T08:08:38.407Z,13.47
2022-08-11T08:11:59.617Z,12.25
2022-08-11T08:15:24.812Z,14.82
2022-08-11T08:18:27.745Z,11.95
2022-08-11T08:21:30.018Z,15.63
2022-08-11T08:24:33.442Z,12.27
2022-08-11T08:27:36.701Z,12.25
2022-08-11T08:30:48.175Z,13.48
2022-08-11T08:33:51.222Z,11.50
2022-08-11T08:39:55.903Z,14.18
2022-08-11T08:43:04.746Z,11.38
2022-08-11T08:46:10.546Z,10.70
2022-08-11T08:49:18.924Z,10.75
2022-08-11T08:52:30.883Z,11.88
2022-08-11T08:55:35.581Z,11.82
2022-08-11T08:58:41.695Z,12.07
2022-08-11T09:01:54.241Z,10.70
2022-08-11T09:04:56.555Z,11.57
2022-08-11T09:07:58.507Z,10.20
2022-08-11T09:11:20.302Z,11.93
2022-08-11T09:14:52.057Z,13.98
2022-08-11T09:18:03.781Z,11.25
2022-08-11T09:21:06.407Z,11.80
2022-08-11T09:24:27.567Z,12.00
2022-08-11T09:27:29.558Z,14.75
2022-08-11T09:30:32.687Z,11.40
2022-08-11T09:40:18.288Z,12.10
2022-08-11T09:43:40.103Z,12.70
2022-08-11T09:46:42.126Z,12.57
2022-08-11T09:49:46.218Z,13.80
2022-08-11T09:53:16.959Z,12.55
2022-08-11T09:56:39.515Z,13.80
2022-08-11T09:59:41.631Z,14.07
2022-08-11T10:02:46.908Z,15.35
2022-08-11T10:06:14.608Z,13.30
2022-08-11T10:09:20.537Z,15.43
2022-08-11T10:12:33.227Z,16.05
2022-08-11T10:15:39.407Z,19.90
2022-08-11T10:19:05.068Z,15.32
2022-08-11T10:22:27.003Z,17.48
2022-08-11T10:25:48.494Z,18.33
2022-08-11T10:29:11.915Z,17.25
2022-08-11T10:32:33.039Z,18.63
2022-08-11T10:35:51.560Z,17.95
2022-08-11T10:38:54.242Z,18.27
2022-08-11T10:42:29.953Z,16.80
2022-08-11T10:45:54.274Z,17.65
2022-08-11T10:48:57.879Z,16.60
2022-08-11T10:52:20.978Z,18.77
2022-08-11T10:55:43.489Z,16.48
2022-08-11T10:58:49.312Z,20.08
2022-08-11T11:01:53.421Z,19.15
2022-08-11T11:05:09.388Z,19.83
2022-08-11T11:08:39.085Z,22.08
2022-08-11T11:12:07.608Z,20.98
2022-08-11T11:15:29.571Z,20.65
2022-08-11T11:18:36.920Z,22.90
2022-08-11T11:21:42.535Z,22.52
2022-08-11T11:25:02.944Z,22.65
2022-08-11T11:28:43.586Z,22.25
2022-08-11T11:32:04.859Z,23.30
2022-08-11T11:35:28.240Z,25.60
2022-08-11T11:38:30.552Z,24.83
2022-08-11T11:41:32.813Z,25.50
2022-08-11T11:44:36.256Z,25.17
2022-08-11T11:47:39.339Z,22.50
2022-08-11T11:50:41.632Z,22.52
2022-08-11T11:53:45.516Z,23.70
2022-08-11T11:56:47.667Z,22.67
2022-08-11T12:00:10.682Z,24.08
2022-08-11T12:03:13.470Z,22.77
2022-08-11T12:06:17.119Z,20.58
2022-08-11T12:09:23.305Z,22.17
2022-08-11T12:12:45.461Z,20.48
2022-08-11T12:16:32.041Z,20.92
2022-08-11T12:22:36.344Z,19.75
2022-08-11T12:26:23.459Z,20.88
2022-08-11T12:29:20.790Z,20.08
2022-08-11T12:32:26.044Z,19.70
2022-08-11T12:35:28.010Z,17.27
2022-08-11T12:38:31.356Z,17.80
2022-08-11T12:41:53.791Z,17.13
2022-08-11T12:48:58.655Z,15.27
2022-08-11T12:52:12.785Z,14.80
2022-08-11T12:55:38.813Z,17.20
2022-08-11T12:58:42.945Z,15.57
2022-08-11T13:02:03.770Z,15.90
2022-08-11T13:05:11.826Z,14.40
2022-08-11T13:08:17.414Z,14.15
2022-08-11T13:15:01.692Z,13.35
2022-08-11T13:18:08.149Z,14.18
2022-08-11T13:21:20.823Z,14.00
2022-08-11T13:24:23.987Z,13.48
2022-08-11T13:27:26.793Z,13.65
2022-08-11T13:30:51.346Z,12.65
2022-08-11T13:33:54.293Z,12.45
2022-08-11T13:40:01.963Z,11.40
2022-08-11T13:43:04.042Z,11.73
2022-08-11T13:46:22.867Z,12.70
2022-08-11T13:49:25.958Z,12.93
2022-08-11T13:52:28.597Z,14.13
2022-08-11T13:55:45.128Z,12.80
2022-08-11T13:58:54.177Z,13.40
2022-08-11T14:02:20.841Z,17.58
2022-08-11T14:05:33.938Z,12.43
2022-08-11T14:08:40.936Z,12.93
2022-08-11T14:12:21.964Z,15.93
2022-08-11T14:15:33.056Z,13.43
2022-08-11T14:18:36.163Z,12.88
2022-08-11T14:22:07.248Z,15.48
2022-08-11T14:25:12.413Z,16.95
2022-08-11T14:28:33.686Z,14.50
2022-08-11T14:31:43.623Z,15.80
2022-08-11T14:34:45.867Z,12.65
2022-08-11T14:37:48.583Z,18.15
2022-08-11T14:41:10.882Z,18.25
2022-08-11T14:44:31.957Z,15.82
2022-08-11T14:47:41.850Z,14.85
2022-08-11T14:50:44.095Z,14.52
2022-08-11T14:53:52.102Z,18.57
2022-08-11T14:57:03.280Z,17.27
2022-08-11T15:00:08.637Z,16.50
2022-08-11T15:03:15.237Z,15.85
2022-08-11T15:06:17.495Z,17.40
2022-08-11T15:09:19.664Z,15.55
2022-08-11T15:12:32.766Z,17.17
2022-08-11T15:15:54.336Z,24.17
2022-08-11T15:18:57.272Z,17.13
2022-08-11T15:25:20.963Z,17.65
2022-08-11T15:28:44.954Z,17.90
2022-08-11T15:32:06.777Z,17.05
2022-08-11T15:35:38.932Z,19.65
2022-08-11T15:38:55.474Z,20.07
2022-08-11T15:42:25.864Z,17.55
2022-08-11T15:45:50.047Z,18.33
2022-08-11T15:49:21.867Z,16.88
2022-08-11T15:52:30.038Z,17.90
2022-08-11T15:55:35.063Z,16.58
2022-08-11T15:59:40.615Z,16.88
2022-08-11T16:02:50.367Z,18.08
2022-08-11T16:05:53.203Z,16.80
2022-08-11T16:08:59.625Z,16.23
2022-08-11T16:12:04.891Z,16.20
2022-08-11T16:15:28.787Z,19.52
2022-08-11T16:18:41.376Z,16.92
2022-08-11T16:21:44.769Z,18.08
2022-08-11T16:27:01.927Z,20.00
2022-08-11T16:28:14.666Z,16.05
2022-08-11T16:31:18.153Z,18.77
2022-08-11T16:34:38.738Z,21.02
2022-08-11T16:38:00.365Z,19.75
2022-08-11T16:41:11.706Z,18.75
2022-08-11T16:44:37.861Z,18.55
2022-08-11T16:48:02.609Z,17.00
2022-08-11T16:51:11.290Z,20.02
2022-08-11T16:54:13.892Z,17.60
2022-08-11T16:57:39.202Z,15.60
2022-08-11T17:00:41.455Z,17.83
2022-08-11T17:04:05.845Z,19.23
2022-08-11T17:07:42.453Z,17.45
2022-08-11T17:11:21.983Z,20.60
2022-08-11T17:14:35.614Z,17.98
2022-08-11T17:17:39.864Z,18.77
2022-08-11T17:20:44.333Z,17.17
2022-08-11T17:24:09.513Z,18.75
2022-08-11T17:27:16.651Z,18.00
2022-08-11T17:30:19.708Z,18.05
2022-08-11T17:36:45.835Z,20.38
2022-08-11T17:39:49.536Z,18.23
2022-08-11T17:43:15.276Z,18.15
2022-08-11T17:46:37.140Z,16.75
2022-08-11T17:49:40.544Z,18.75
2022-08-11T17:53:03.742Z,18.30
2022-08-11T17:56:25.863Z,19.85
2022-08-11T17:59:49.062Z,20.58
2022-08-11T18:03:13.047Z,21.40
2022-08-11T18:06:18.716Z,19.48
2022-08-11T18:09:41.901Z,22.17
2022-08-11T18:13:03.212Z,25.10
2022-08-11T18:16:24.060Z,23.50
2022-08-11T18:19:44.756Z,23.67
2022-08-11T18:23:07.425Z,22.88
2022-08-11T18:26:29.912Z,20.87
2022-08-11T18:29:53.881Z,24.92
2022-08-11T18:34:03.946Z,27.83
2022-08-11T18:37:08.035Z,30.17
2022-08-11T18:40:35.169Z,30.85
2022-08-11T18:44:01.034Z,29.20
2022-08-11T18:47:27.447Z,34.33
2022-08-11T18:51:00.674Z,31.77
2022-08-11T18:54:32.675Z,34.28
2022-08-11T18:57:58.167Z,32.63
2022-08-11T19:01:20.474Z,31.02
2022-08-11T19:04:44.480Z,31.50
2022-08-11T19:08:10.467Z,28.58
2022-08-11T19:11:42.375Z,29.00
2022-08-11T19:15:06.594Z,25.33
2022-08-11T19:18:32.553Z,26.98
2022-08-11T19:21:55.588Z,24.48
2022-08-11T19:25:20.982Z,25.30
2022-08-11T19:28:47.578Z,23.70
2022-08-11T19:32:10.863Z,22.77
2022-08-11T19:35:41.969Z,23.85
2022-08-11T19:39:04.532Z,23.30
2022-08-11T19:42:29.245Z,23.63
2022-08-11T19:45:53.111Z,22.00
2022-08-11T19:49:18.109Z,20.85
2022-08-11T19:52:40.154Z,19.27
2022-08-11T19:56:03.938Z,21.25
2022-08-11T19:59:26.653Z,21.10
2022-08-11T20:02:47.200Z,18.90
2022-08-11T20:06:10.122Z,19.90
2022-08-11T20:10:05.492Z,22.13
2022-08-11T20:13:21.205Z,19.90
2022-08-11T20:16:44.121Z,20.23
2022-08-11T20:20:05.408Z,19.65
2022-08-11T20:23:28.603Z,20.00
2022-08-11T20:26:51.881Z,20.25
2022-08-11T20:30:15.499Z,19.00
2022-08-11T20:36:57.725Z,18.65
2022-08-11T20:40:23.483Z,20.27
2022-08-11T20:44:07.423Z,21.52
2022-08-11T20:47:27.334Z,22.10
2022-08-11T20:50:49.387Z,23.13
2022-08-11T20:54:13.850Z,21.77
2022-08-11T20:57:59.888Z,19.65
2022-08-11T21:01:20.424Z,23.07
2022-08-11T21:04:54.099Z,23.45
2022-08-11T21:08:16.449Z,22.73
2022-08-11T21:11:37.382Z,24.27
2022-08-11T21:14:59.634Z,24.33
2022-08-11T21:18:29.512Z,24.67
2022-08-11T21:21:51.276Z,26.05
2022-08-11T21:25:16.084Z,27.02
2022-08-11T21:28:38.605Z,26.27
2022-08-11T21:32:00.038Z,28.45
2022-08-11T21:35:22.153Z,31.08
2022-08-11T21:38:43.643Z,35.55
2022-08-11T21:42:05.848Z,40.20
2022-08-11T21:45:28.804Z,37.13
2022-08-11T21:48:51.791Z,39.00
2022-08-11T21:52:12.790Z,37.53
2022-08-11T21:55:33.563Z,39.05
2022-08-11T21:58:56.639Z,37.53
2022-08-11T22:02:18.075Z,35.10
2022-08-11T22:05:39.161Z,36.45
2022-08-11T22:09:01.432Z,39.38
2022-08-11T22:12:41.170Z,39.78
2022-08-11T22:16:03.845Z,40.00
2022-08-11T22:19:25.507Z,35.45
2022-08-11T22:22:52.034Z,37.42
2022-08-11T22:26:15.186Z,38.15
2022-08-11T22:29:38.053Z,35.88
2022-08-11T22:33:11.421Z,36.10
2022-08-11T22:36:33.625Z,35.70
2022-08-11T22:40:01.852Z,36.20
2022-08-11T22:43:23.375Z,35.03
2022-08-11T22:46:44.705Z,33.75
2022-08-11T22:50:09.644Z,36.80
2022-08-11T22:53:55.024Z,35.20
2022-08-11T22:57:13.434Z,35.60
2022-08-11T23:00:35.139Z,34.35
2022-08-11T23:03:56.259Z,34.85
2022-08-11T23:07:49.436Z,34.30
2022-08-11T23:11:01.485Z,29.88
2022-08-11T23:14:22.807Z,29.90
2022-08-11T23:17:44.517Z,28.23
2022-08-11T23:21:06.878Z,31.20
2022-08-11T23:24:29.453Z,29.63
2022-08-11T23:27:52.701Z,27.75
2022-08-11T23:31:16.580Z,27.48
2022-08-11T23:35:04.091Z,28.90
2022-08-11T23:38:21.043Z,29.48
2022-08-11T23:41:41.737Z,29.98
2022-08-11T23:45:02.111Z,30.88
2022-08-11T23:48:27.915Z,30.65
2022-08-11T23:51:48.220Z,31.63
2022-08-11T23:55:08.970Z,27.98
2022-08-11T23:58:29.685Z,30.58
